Time;durP1;ratioP1;P1;durP2;ratioP2;P2;SDS_P1;SDS_P2;PMS_P1;PMS_P2;Temp;Humidity;BMP_temperature;BMP_pressure;BME280_temperature;BME280_humidity;BME280_pressure;Samples;Min_cycle;Max_cycle;Signal;HPM_P1;HPM_P2
2021/12/25 00:00:14;;;;;;;46.27;26.73;;;9.00;99.90;;;;;;5083849;28;20225;-62
2021/12/25 00:02:40;;;;;;;48.87;27.13;;;8.80;99.90;;;;;;5091299;28;20188;-61
2021/12/25 00:05:07;;;;;;;61.00;32.57;;;8.70;99.90;;;;;;5067198;28;20189;-59
2021/12/25 00:07:33;;;;;;;54.73;27.87;;;8.60;99.90;;;;;;5082753;28;20222;-59
2021/12/25 00:10:00;;;;;;;54.63;28.17;;;8.70;99.90;;;;;;5090409;28;20207;-60
2021/12/25 00:12:26;;;;;;;53.30;29.60;;;8.70;99.90;;;;;;5072087;28;20189;-60
2021/12/25 00:14:52;;;;;;;54.53;28.07;;;9.00;99.90;;;;;;5072603;28;20185;-61
2021/12/25 00:17:18;;;;;;;56.87;27.70;;;9.10;99.90;;;;;;5079981;28;20760;-60
2021/12/25 00:19:43;;;;;;;57.33;28.03;;;9.40;99.90;;;;;;5082181;28;20214;-61
2021/12/25 00:22:10;;;;;;;48.60;27.13;;;9.40;99.90;;;;;;5088436;28;20725;-60
2021/12/25 00:24:36;;;;;;;51.00;29.17;;;9.40;99.90;;;;;;5055060;28;20192;-63
2021/12/25 00:27:20;;;;;;;51.57;27.03;;;9.00;99.90;;;;;;5081705;28;20694;-62
2021/12/25 00:34:41;;;;;;;49.00;27.77;;;9.00;99.90;;;;;;5067759;28;20192;-58
2021/12/25 00:37:08;;;;;;;59.43;29.73;;;9.00;99.90;;;;;;5075703;28;20204;-59
2021/12/25 00:39:33;;;;;;;51.97;30.30;;;8.70;99.90;;;;;;5076675;28;20185;-58
2021/12/25 00:42:01;;;;;;;47.23;27.63;;;8.70;99.90;;;;;;5094607;28;20305;-59
2021/12/25 00:44:28;;;;;;;49.50;28.67;;;8.60;99.90;;;;;;5094288;28;20548;-59
2021/12/25 00:46:54;;;;;;;55.57;27.83;;;8.40;99.90;;;;;;5094740;28;20185;-59
2021/12/25 00:49:19;;;;;;;51.23;27.47;;;8.40;99.90;;;;;;5090500;28;20220;-60
2021/12/25 00:51:45;;;;;;;57.30;27.40;;;8.40;99.90;;;;;;5093934;28;20213;-58
2021/12/25 00:54:12;;;;;;;59.10;30.80;;;8.50;99.90;;;;;;5076093;28;20238;-58
2021/12/25 00:56:38;;;;;;;54.60;27.43;;;8.70;99.90;;;;;;5094294;28;20233;-59
2021/12/25 00:59:03;;;;;;;52.53;28.73;;;8.70;99.90;;;;;;5045722;28;20185;-59
2021/12/25 01:01:29;;;;;;;57.43;28.23;;;8.70;99.90;;;;;;5094083;28;20204;-58
2021/12/25 01:03:55;;;;;;;49.70;30.07;;;8.70;99.90;;;;;;5055693;28;20196;-59
2021/12/25 01:06:21;;;;;;;57.80;28.10;;;8.70;99.90;;;;;;5088840;28;20195;-60
2021/12/25 01:08:47;;;;;;;51.67;29.30;;;8.60;99.90;;;;;;5077940;28;20197;-59
2021/12/25 01:11:13;;;;;;;62.57;32.40;;;8.50;99.90;;;;;;5074380;28;20181;-58
2021/12/25 01:13:46;;;;;;;57.10;28.13;;;8.50;99.90;;;;;;5089588;28;20598;-58
2021/12/25 01:19:29;;;;;;;56.40;28.63;;;8.20;99.90;;;;;;5080355;28;20215;-59
2021/12/25 01:37:25;;;;;;;66.50;30.07;;;7.90;99.90;;;;;;5078860;28;20279;-60
2021/12/25 01:48:04;;;;;;;59.60;29.00;;;8.10;99.90;;;;;;5093769;28;20199;-59
2021/12/25 01:50:30;;;;;;;58.20;28.77;;;8.10;99.90;;;;;;5074845;28;20646;-59
2021/12/25 01:52:57;;;;;;;59.33;28.07;;;8.10;99.90;;;;;;5075008;28;20290;-58
2021/12/25 01:55:29;;;;;;;62.40;31.77;;;7.90;99.90;;;;;;5075045;28;20217;-59
2021/12/25 01:57:56;;;;;;;63.33;31.20;;;7.90;99.90;;;;;;5056383;28;20272;-58
2021/12/25 02:00:47;;;;;;;55.67;30.57;;;8.00;99.90;;;;;;5056022;28;20219;-58
2021/12/25 02:03:16;;;;;;;61.90;30.27;;;8.10;99.90;;;;;;5054448;28;20216;-59
2021/12/25 02:05:42;;;;;;;61.70;31.33;;;8.00;99.90;;;;;;5078873;28;20215;-58
2021/12/25 02:08:08;;;;;;;60.93;30.10;;;8.00;99.90;;;;;;5074885;28;20215;-59
2021/12/25 02:10:33;;;;;;;65.40;30.17;;;8.00;99.90;;;;;;5069799;28;20193;-59
2021/12/25 02:13:02;;;;;;;71.20;32.73;;;8.00;99.90;;;;;;5086247;28;20733;-59
2021/12/25 02:15:28;;;;;;;62.57;32.57;;;7.90;99.90;;;;;;5092512;28;20188;-59
2021/12/25 02:20:32;;;;;;;65.13;31.57;;;8.00;99.90;;;;;;5077958;28;20661;-59
2021/12/25 02:23:05;;;;;;;64.53;31.17;;;7.90;99.90;;;;;;5073643;28;20173;-58
2021/12/25 02:25:35;;;;;;;69.23;30.97;;;8.00;99.90;;;;;;5075833;28;20235;-59
2021/12/25 02:28:03;;;;;;;68.90;30.07;;;7.80;99.90;;;;;;5066223;28;20189;-58
2021/12/25 02:30:29;;;;;;;60.10;30.03;;;7.80;99.90;;;;;;5081491;28;20189;-59
2021/12/25 02:32:58;;;;;;;60.93;29.03;;;7.80;99.90;;;;;;5063388;28;20192;-58
2021/12/25 02:35:24;;;;;;;63.33;31.20;;;7.80;99.90;;;;;;5073773;28;20276;-58
2021/12/25 02:37:50;;;;;;;57.03;27.83;;;7.90;99.90;;;;;;5077576;28;20192;-58
2021/12/25 02:40:16;;;;;;;52.47;25.73;;;7.90;99.90;;;;;;5048921;28;20221;-59
2021/12/25 02:42:42;;;;;;;64.47;28.20;;;8.00;99.90;;;;;;5067439;28;20184;-58
2021/12/25 02:45:15;;;;;;;54.47;27.53;;;8.00;99.90;;;;;;5080795;28;20242;-58
2021/12/25 02:47:46;;;;;;;50.07;25.87;;;8.00;99.90;;;;;;5083109;28;20176;-58
2021/12/25 02:50:13;;;;;;;55.77;27.30;;;7.80;99.90;;;;;;5073551;28;20195;-58
2021/12/25 02:52:40;;;;;;;59.23;28.27;;;7.70;99.90;;;;;;5091122;28;20189;-59
2021/12/25 02:55:06;;;;;;;52.40;29.07;;;7.80;99.90;;;;;;5057241;28;20265;-59
2021/12/25 02:57:32;;;;;;;48.00;26.63;;;7.70;99.90;;;;;;5074435;28;20600;-59
2021/12/25 02:59:58;;;;;;;57.00;27.13;;;7.70;99.90;;;;;;5092060;28;20193;-58
2021/12/25 03:02:24;;;;;;;58.70;28.07;;;7.70;99.90;;;;;;5092551;28;20533;-59
2021/12/25 03:04:50;;;;;;;68.20;29.60;;;7.70;99.90;;;;;;5067394;28;20191;-58
2021/12/25 03:07:17;;;;;;;49.20;26.50;;;7.70;99.90;;;;;;5058699;28;20196;-59
2021/12/25 03:09:43;;;;;;;53.93;25.57;;;7.80;99.90;;;;;;5074874;28;20577;-58
2021/12/25 03:12:13;;;;;;;55.77;24.53;;;7.80;99.90;;;;;;5060497;28;20293;-58
2021/12/25 03:15:04;;;;;;;52.90;26.63;;;7.70;99.90;;;;;;5091348;28;20176;-59
2021/12/25 03:17:31;;;;;;;47.53;23.87;;;7.80;99.90;;;;;;5087951;28;20180;-58
2021/12/25 03:19:57;;;;;;;50.23;22.80;;;7.70;99.90;;;;;;5057120;28;20190;-58
2021/12/25 03:22:23;;;;;;;50.20;25.17;;;7.90;99.90;;;;;;5038601;28;20554;-58
2021/12/25 03:24:48;;;;;;;51.07;24.23;;;8.00;99.90;;;;;;5081221;28;20185;-59
2021/12/25 03:27:14;;;;;;;48.80;21.87;;;7.90;99.90;;;;;;5074155;28;20673;-59
2021/12/25 03:29:42;;;;;;;42.13;22.30;;;7.80;99.90;;;;;;5075700;28;20181;-58
2021/12/25 03:32:09;;;;;;;38.60;19.73;;;7.80;99.90;;;;;;5078293;28;20394;-59
2021/12/25 03:34:35;;;;;;;39.07;20.10;;;7.70;99.90;;;;;;5078185;28;20550;-58
2021/12/25 03:37:01;;;;;;;34.87;18.90;;;7.70;99.90;;;;;;5095816;28;20267;-58
2021/12/25 03:39:27;;;;;;;38.33;19.13;;;7.80;99.90;;;;;;5095193;28;20558;-58
2021/12/25 03:41:54;;;;;;;36.13;18.13;;;7.90;99.90;;;;;;5087900;28;20219;-59
2021/12/25 03:44:20;;;;;;;37.23;18.43;;;7.90;99.90;;;;;;5095821;28;20191;-58
2021/12/25 03:46:46;;;;;;;27.63;15.23;;;8.00;99.90;;;;;;5077010;28;20180;-61
2021/12/25 03:49:26;;;;;;;28.63;14.57;;;7.90;99.90;;;;;;5073143;28;20541;-59
2021/12/25 03:57:43;;;;;;;21.90;11.83;;;7.90;99.90;;;;;;5086464;28;20199;-58
2021/12/25 04:00:14;;;;;;;24.40;12.87;;;7.90;99.90;;;;;;5059977;28;20189;-58
2021/12/25 04:02:52;;;;;;;17.37;10.50;;;7.80;99.90;;;;;;5083821;28;20176;-58
2021/12/25 04:05:20;;;;;;;15.87;9.93;;;7.70;99.90;;;;;;5095487;28;20279;-58
2021/12/25 04:08:05;;;;;;;16.23;9.93;;;7.60;99.90;;;;;;5077242;28;20549;-59
2021/12/25 04:10:35;;;;;;;18.33;9.80;;;7.40;99.90;;;;;;5069373;28;20684;-59
2021/12/25 04:13:02;;;;;;;18.37;10.47;;;7.40;99.90;;;;;;5087451;28;20551;-59
2021/12/25 04:15:28;;;;;;;17.87;10.73;;;7.30;99.90;;;;;;5095069;28;20192;-59
2021/12/25 04:17:54;;;;;;;18.47;11.20;;;7.20;99.90;;;;;;5058257;28;20189;-61
2021/12/25 04:20:20;;;;;;;19.67;10.23;;;7.20;99.90;;;;;;5062550;28;20374;-60
2021/12/25 04:22:52;;;;;;;18.57;11.50;;;7.10;99.90;;;;;;5094660;28;20181;-60
2021/12/25 04:25:27;;;;;;;22.73;12.47;;;7.20;99.90;;;;;;5067403;28;20238;-60
2021/12/25 04:27:54;;;;;;;23.37;11.07;;;7.20;99.90;;;;;;5085279;28;20548;-60
2021/12/25 05:05:24;;;;;;;24.13;11.63;;;6.80;99.90;;;;;;5074464;28;20185;-60
2021/12/25 05:07:50;;;;;;;17.20;10.30;;;6.70;99.90;;;;;;5081390;28;20294;-60
2021/12/25 05:10:15;;;;;;;23.60;11.63;;;6.60;99.90;;;;;;5075510;28;20196;-59
2021/12/25 05:12:41;;;;;;;21.83;11.77;;;6.60;99.90;;;;;;5094059;28;20272;-61
2021/12/25 05:15:07;;;;;;;25.60;14.00;;;6.50;99.90;;;;;;5072722;28;20605;-59
2021/12/25 05:17:33;;;;;;;24.70;11.93;;;6.60;99.90;;;;;;5070644;28;20652;-59
2021/12/25 05:19:59;;;;;;;25.73;12.63;;;6.50;99.90;;;;;;5072168;28;20209;-59
2021/12/25 05:22:25;;;;;;;21.13;12.13;;;6.50;99.90;;;;;;5093834;28;20276;-59
2021/12/25 05:24:51;;;;;;;26.40;13.97;;;6.60;99.90;;;;;;5091963;28;20180;-59
2021/12/25 05:27:18;;;;;;;24.50;12.67;;;6.60;99.90;;;;;;5075605;28;20189;-60
2021/12/25 05:29:46;;;;;;;29.17;14.40;;;6.60;99.90;;;;;;5075760;28;20189;-60
2021/12/25 05:32:18;;;;;;;31.37;14.50;;;6.60;99.90;;;;;;5082446;28;20192;-60
2021/12/25 05:34:44;;;;;;;30.07;15.60;;;6.50;99.90;;;;;;5081878;28;20261;-59
2021/12/25 05:37:10;;;;;;;24.33;13.40;;;6.50;99.90;;;;;;5075624;28;20195;-59
2021/12/25 05:39:36;;;;;;;32.30;13.77;;;6.40;99.90;;;;;;5071407;28;20264;-59
2021/12/25 05:42:01;;;;;;;28.83;15.60;;;6.40;99.90;;;;;;5052392;28;20259;-59
2021/12/25 05:44:27;;;;;;;30.17;14.77;;;6.50;99.90;;;;;;5094006;28;20206;-59
2021/12/25 05:46:53;;;;;;;27.50;14.13;;;6.50;99.90;;;;;;5075339;28;20593;-59
2021/12/25 05:49:20;;;;;;;28.00;12.83;;;6.40;99.90;;;;;;5062753;28;20216;-59
2021/12/25 05:51:46;;;;;;;26.40;13.60;;;6.40;99.90;;;;;;5093244;28;20196;-59
2021/12/25 05:54:12;;;;;;;28.47;12.70;;;6.30;99.90;;;;;;5076841;28;20212;-59
2021/12/25 05:56:37;;;;;;;25.90;12.77;;;6.30;99.90;;;;;;5091416;28;20673;-59
2021/12/25 05:59:03;;;;;;;26.93;12.33;;;6.30;99.90;;;;;;5075236;28;20195;-60
2021/12/25 06:01:29;;;;;;;24.20;12.63;;;6.30;99.90;;;;;;5075062;28;20219;-59
2021/12/25 06:03:56;;;;;;;25.13;12.07;;;6.20;99.90;;;;;;5073616;28;20269;-58
2021/12/25 06:06:23;;;;;;;27.93;14.60;;;6.30;99.90;;;;;;5092707;28;20216;-58
2021/12/25 06:08:48;;;;;;;23.97;13.20;;;6.20;99.90;;;;;;5074938;28;20257;-58
2021/12/25 06:11:16;;;;;;;30.50;12.80;;;6.10;99.90;;;;;;5074339;28;20188;-59
2021/12/25 06:13:48;;;;;;;25.93;12.33;;;6.00;99.90;;;;;;5075402;28;20191;-59
2021/12/25 06:16:14;;;;;;;23.07;12.70;;;5.90;99.90;;;;;;5092359;28;20211;-59
2021/12/25 06:18:40;;;;;;;22.80;13.33;;;6.00;99.90;;;;;;5093052;28;20617;-58
2021/12/25 06:21:05;;;;;;;24.73;11.77;;;5.90;99.90;;;;;;5074451;28;20736;-59
2021/12/25 06:23:31;;;;;;;25.13;12.87;;;5.90;99.90;;;;;;5073902;28;20196;-59
2021/12/25 06:25:57;;;;;;;27.47;13.83;;;5.80;99.90;;;;;;5083291;28;20189;-59
2021/12/25 06:28:23;;;;;;;28.37;12.37;;;5.70;99.90;;;;;;5085914;28;20639;-59
2021/12/25 06:30:49;;;;;;;24.53;12.57;;;5.80;99.90;;;;;;5069537;28;20193;-59
2021/12/25 06:33:15;;;;;;;19.97;10.77;;;5.80;99.90;;;;;;5045298;28;20193;-59
2021/12/25 06:35:41;;;;;;;31.90;13.23;;;5.70;99.90;;;;;;5073341;28;20208;-58
2021/12/25 06:38:07;;;;;;;22.90;11.97;;;5.70;99.90;;;;;;5090838;28;20275;-59
2021/12/25 06:40:33;;;;;;;24.30;12.53;;;5.80;99.90;;;;;;5078164;28;20288;-58
2021/12/25 06:42:58;;;;;;;26.43;12.07;;;5.80;99.90;;;;;;5071833;28;20196;-58
2021/12/25 06:45:24;;;;;;;20.33;10.83;;;5.80;99.90;;;;;;5092728;28;20188;-58
2021/12/25 06:47:50;;;;;;;17.77;10.00;;;5.60;99.90;;;;;;5092339;28;20216;-58
2021/12/25 06:50:16;;;;;;;24.03;10.80;;;5.40;99.90;;;;;;5092678;28;20206;-59
2021/12/25 06:52:45;;;;;;;19.33;9.97;;;5.40;99.90;;;;;;5074551;28;20181;-59
2021/12/25 06:55:13;;;;;;;17.83;9.83;;;5.40;99.90;;;;;;5074604;28;20192;-58
2021/12/25 06:57:47;;;;;;;19.53;10.77;;;5.40;99.90;;;;;;5060889;28;20196;-58
2021/12/25 07:00:13;;;;;;;21.27;10.80;;;5.30;99.90;;;;;;5080257;28;20707;-58
2021/12/25 07:02:39;;;;;;;20.90;10.67;;;5.30;99.90;;;;;;5072988;28;20664;-58
2021/12/25 07:05:05;;;;;;;22.87;12.03;;;5.20;99.90;;;;;;5078643;28;20189;-58
2021/12/25 07:07:31;;;;;;;22.40;11.47;;;5.40;99.90;;;;;;5090198;28;20249;-58
2021/12/25 07:09:57;;;;;;;23.97;10.63;;;5.30;99.90;;;;;;5080687;28;20259;-59
2021/12/25 07:12:24;;;;;;;22.67;11.17;;;5.30;99.90;;;;;;5094085;28;20644;-59
2021/12/25 07:14:50;;;;;;;18.60;9.43;;;5.20;99.90;;;;;;5067668;28;20188;-58
2021/12/25 07:17:17;;;;;;;22.87;10.60;;;5.10;99.90;;;;;;5071831;28;20276;-59
2021/12/25 07:19:42;;;;;;;22.57;10.37;;;5.30;99.90;;;;;;5085466;28;20230;-58
2021/12/25 07:22:08;;;;;;;19.37;10.10;;;5.20;99.90;;;;;;5096123;28;20216;-59
2021/12/25 07:24:34;;;;;;;18.60;9.80;;;5.00;99.90;;;;;;5077655;28;20597;-58
2021/12/25 07:27:05;;;;;;;19.00;10.17;;;4.90;99.90;;;;;;5078071;28;20670;-58
2021/12/25 07:29:31;;;;;;;22.40;11.27;;;4.80;99.90;;;;;;5061487;28;20181;-58
2021/12/25 07:31:57;;;;;;;21.67;11.47;;;4.80;99.90;;;;;;5078876;28;20251;-58
2021/12/25 07:34:22;;;;;;;22.17;10.63;;;4.70;99.90;;;;;;5089506;28;20180;-58
2021/12/25 07:36:48;;;;;;;21.17;10.63;;;4.90;99.90;;;;;;5095437;28;20558;-58
2021/12/25 07:39:14;;;;;;;24.03;12.93;;;4.80;99.90;;;;;;5077660;28;20605;-58
2021/12/25 07:41:39;;;;;;;22.10;12.03;;;4.80;99.90;;;;;;5083771;28;20213;-58
2021/12/25 07:44:05;;;;;;;22.63;10.67;;;4.90;99.90;;;;;;5076703;28;20626;-59
2021/12/25 07:46:32;;;;;;;18.53;9.50;;;4.90;99.90;;;;;;5094709;28;20209;-58
2021/12/25 07:48:58;;;;;;;22.73;12.03;;;4.70;99.90;;;;;;5095258;28;20192;-59
2021/12/25 07:51:24;;;;;;;29.03;11.77;;;4.70;99.90;;;;;;5077525;28;20192;-58
2021/12/25 07:53:50;;;;;;;29.80;13.63;;;4.50;99.90;;;;;;5095568;28;20259;-59
2021/12/25 07:56:15;;;;;;;26.47;12.73;;;4.50;99.90;;;;;;5095635;28;20279;-58
2021/12/25 07:58:42;;;;;;;21.37;10.23;;;4.40;99.90;;;;;;5077378;28;21194;-59
2021/12/25 08:01:08;;;;;;;25.97;12.67;;;4.40;99.90;;;;;;5095092;28;20630;-59
2021/12/25 08:03:35;;;;;;;26.13;14.77;;;4.40;99.90;;;;;;5095454;28;20196;-59
2021/12/25 08:06:01;;;;;;;23.73;12.27;;;4.40;99.90;;;;;;5095010;28;20189;-59
2021/12/25 08:08:27;;;;;;;26.07;13.50;;;4.30;99.90;;;;;;5083250;28;20196;-57
2021/12/25 08:10:53;;;;;;;28.00;13.63;;;4.30;99.90;;;;;;5073036;28;20222;-59
2021/12/25 08:13:19;;;;;;;33.90;16.23;;;4.30;99.90;;;;;;5076671;28;20201;-58
2021/12/25 08:15:45;;;;;;;25.63;13.63;;;4.30;99.90;;;;;;5094644;28;20212;-58
2021/12/25 08:18:11;;;;;;;31.03;16.33;;;4.30;99.90;;;;;;5088540;28;20611;-59
2021/12/25 08:20:37;;;;;;;32.33;15.07;;;4.40;99.90;;;;;;5075790;28;20236;-58
2021/12/25 08:23:03;;;;;;;30.40;16.10;;;4.40;99.90;;;;;;5092071;28;20259;-60
2021/12/25 08:25:29;;;;;;;31.47;14.83;;;4.50;99.90;;;;;;5061281;28;20224;-58
2021/12/25 08:27:55;;;;;;;29.50;16.37;;;4.60;99.90;;;;;;5056419;28;20217;-58
2021/12/25 08:30:23;;;;;;;32.53;15.73;;;4.40;99.90;;;;;;5063440;28;20238;-59
2021/12/25 08:32:52;;;;;;;34.20;17.80;;;4.30;99.90;;;;;;5094654;28;20227;-58
2021/12/25 08:35:17;;;;;;;31.87;16.30;;;4.30;99.90;;;;;;5073708;28;20631;-59
2021/12/25 08:37:44;;;;;;;35.30;17.77;;;4.40;99.90;;;;;;5075143;28;20192;-58
2021/12/25 08:40:12;;;;;;;32.20;15.40;;;4.30;99.90;;;;;;5092579;28;20276;-59
2021/12/25 08:42:44;;;;;;;31.70;16.63;;;4.30;99.90;;;;;;5094970;28;20193;-58
2021/12/25 08:45:30;;;;;;;27.10;16.20;;;4.20;99.90;;;;;;5066497;28;20230;-58
2021/12/25 08:47:55;;;;;;;33.70;15.93;;;4.10;99.90;;;;;;5063302;28;20199;-58
2021/12/25 08:50:21;;;;;;;31.47;16.63;;;4.10;99.90;;;;;;5093215;28;20187;-58
2021/12/25 08:52:47;;;;;;;35.33;17.10;;;4.00;99.90;;;;;;5058364;28;20181;-59
2021/12/25 08:55:13;;;;;;;29.83;14.50;;;4.00;99.90;;;;;;5075159;28;20186;-60
2021/12/25 08:57:38;;;;;;;31.00;16.30;;;4.00;99.90;;;;;;5070178;28;20638;-60
2021/12/25 09:00:05;;;;;;;34.30;16.40;;;4.00;99.90;;;;;;5086335;28;20635;-60
2021/12/25 09:02:31;;;;;;;35.70;16.70;;;4.10;99.90;;;;;;5062014;28;20274;-60
2021/12/25 09:04:56;;;;;;;34.80;17.73;;;4.10;99.90;;;;;;5091413;28;20263;-60
2021/12/25 09:07:22;;;;;;;30.10;15.70;;;4.10;99.90;;;;;;5063320;28;20227;-60
2021/12/25 09:09:48;;;;;;;33.23;17.17;;;4.00;99.90;;;;;;5073802;28;21280;-60
2021/12/25 09:12:16;;;;;;;32.93;15.60;;;4.00;99.90;;;;;;5075496;28;20189;-60
2021/12/25 09:14:43;;;;;;;35.60;17.30;;;3.90;99.90;;;;;;5088001;28;20188;-60
2021/12/25 09:17:10;;;;;;;31.47;16.50;;;3.90;99.90;;;;;;5088882;28;20173;-60
2021/12/25 09:19:36;;;;;;;32.33;17.57;;;3.90;99.90;;;;;;5083439;28;20192;-60
2021/12/25 09:22:02;;;;;;;31.13;16.73;;;3.80;99.90;;;;;;5071597;28;20204;-60
2021/12/25 09:24:28;;;;;;;34.27;16.27;;;3.80;99.90;;;;;;5086216;28;20391;-60
2021/12/25 09:26:54;;;;;;;31.90;16.10;;;3.90;99.90;;;;;;5074947;28;20642;-60
2021/12/25 09:29:19;;;;;;;29.60;15.30;;;3.90;99.90;;;;;;5090889;28;20561;-60
2021/12/25 09:31:45;;;;;;;33.23;16.70;;;3.90;99.90;;;;;;5090555;28;20631;-61
2021/12/25 09:34:11;;;;;;;35.80;17.07;;;3.90;99.90;;;;;;5072910;28;20279;-60
2021/12/25 09:36:37;;;;;;;31.33;15.73;;;4.00;99.90;;;;;;5072611;28;20301;-60
2021/12/25 09:39:04;;;;;;;31.30;17.23;;;3.80;99.90;;;;;;5093530;28;20223;-59
2021/12/25 09:41:32;;;;;;;30.27;15.97;;;3.70;99.90;;;;;;5062265;28;20212;-59
2021/12/25 09:43:58;;;;;;;29.60;16.33;;;3.70;99.90;;;;;;5080151;28;20189;-60
2021/12/25 09:46:24;;;;;;;30.50;15.53;;;3.90;99.90;;;;;;5079114;28;20189;-60
2021/12/25 09:48:52;;;;;;;29.33;16.03;;;3.80;99.90;;;;;;5057035;28;20246;-60
2021/12/25 09:51:19;;;;;;;30.47;16.13;;;3.70;99.90;;;;;;5068130;28;20195;-60
2021/12/25 09:53:59;;;;;;;30.00;16.50;;;3.50;99.90;;;;;;5073433;28;20283;-60
2021/12/25 09:56:25;;;;;;;35.17;18.07;;;3.40;99.90;;;;;;5089566;28;20578;-59
2021/12/25 09:58:51;;;;;;;33.73;17.90;;;3.40;99.90;;;;;;5040666;28;20196;-59
2021/12/25 10:01:43;;;;;;;30.53;17.43;;;3.50;99.90;;;;;;5090207;28;20307;-60
2021/12/25 10:04:29;;;;;;;33.50;15.30;;;3.50;99.90;;;;;;5072712;28;20272;-59
2021/12/25 10:06:55;;;;;;;34.40;17.43;;;3.40;99.90;;;;;;5089075;28;20181;-59
2021/12/25 10:09:24;;;;;;;31.93;16.47;;;3.30;99.90;;;;;;5092569;28;20548;-59
2021/12/25 10:12:11;;;;;;;38.20;16.73;;;3.40;99.90;;;;;;5092671;28;20274;-59
2021/12/25 10:14:40;;;;;;;32.43;18.07;;;3.40;99.90;;;;;;5088247;28;20236;-59
2021/12/25 10:17:24;;;;;;;35.03;17.13;;;3.60;99.90;;;;;;5084282;28;20213;-60
2021/12/25 10:20:11;;;;;;;43.77;20.07;;;3.90;99.90;;;;;;5082226;28;20183;-60
2021/12/25 10:23:14;;;;;;;37.37;19.73;;;3.80;99.90;;;;;;5074235;28;20223;-59
2021/12/25 10:25:58;;;;;;;36.57;19.23;;;3.60;99.90;;;;;;5092256;28;20582;-59
2021/12/25 10:28:34;;;;;;;35.43;18.67;;;3.60;99.90;;;;;;5089110;28;20161;-59
2021/12/25 10:31:16;;;;;;;37.27;18.50;;;3.50;99.90;;;;;;5084286;28;20233;-60
2021/12/25 10:33:53;;;;;;;35.73;19.67;;;3.50;99.90;;;;;;5086200;28;20181;-59
2021/12/25 10:36:29;;;;;;;35.13;18.33;;;3.40;99.90;;;;;;5048884;28;20223;-61
2021/12/25 10:39:09;;;;;;;38.23;17.40;;;3.50;99.90;;;;;;5085123;28;20180;-59
2021/12/25 10:41:39;;;;;;;37.50;19.33;;;3.40;99.90;;;;;;5095663;28;20566;-60
2021/12/25 10:44:16;;;;;;;36.67;17.73;;;3.50;99.90;;;;;;5076055;28;20184;-59
2021/12/25 10:46:48;;;;;;;34.80;17.83;;;3.40;99.90;;;;;;5083432;28;20187;-59
2021/12/25 10:49:15;;;;;;;40.80;19.90;;;3.40;99.90;;;;;;5075337;28;20188;-60
2021/12/25 10:51:41;;;;;;;29.80;15.57;;;3.50;99.90;;;;;;5080886;28;20267;-60
2021/12/25 10:54:10;;;;;;;37.87;19.17;;;3.40;99.90;;;;;;5080635;28;20267;-59
2021/12/25 10:56:38;;;;;;;39.80;19.67;;;3.30;99.90;;;;;;5098731;28;20216;-59
2021/12/25 10:59:07;;;;;;;29.33;15.50;;;3.30;99.90;;;;;;5093687;28;20233;-60
2021/12/25 11:01:51;;;;;;;34.47;18.73;;;3.40;99.90;;;;;;5094130;28;20256;-59
2021/12/25 11:04:26;;;;;;;38.47;18.10;;;3.30;99.90;;;;;;5092769;28;20196;-61
2021/12/25 11:06:52;;;;;;;37.97;19.30;;;3.30;99.90;;;;;;5081396;28;20176;-60
2021/12/25 11:09:17;;;;;;;38.40;20.60;;;3.60;99.90;;;;;;5064182;28;20203;-60
2021/12/25 11:11:43;;;;;;;32.73;16.53;;;3.70;99.90;;;;;;5060914;28;20189;-60
2021/12/25 11:14:12;;;;;;;39.33;21.80;;;3.60;99.90;;;;;;5068253;28;20223;-60
2021/12/25 11:16:40;;;;;;;37.07;18.67;;;3.60;99.90;;;;;;5088495;28;20208;-61
2021/12/25 11:19:13;;;;;;;37.67;18.80;;;3.50;99.90;;;;;;5080832;28;20253;-61
2021/12/25 11:21:45;;;;;;;44.63;21.53;;;3.40;99.90;;;;;;5080201;28;20234;-62
2021/12/25 11:24:22;;;;;;;43.50;20.40;;;3.50;99.90;;;;;;5079779;28;20250;-60
2021/12/25 11:26:54;;;;;;;36.37;17.93;;;3.60;99.90;;;;;;5065667;28;20210;-60
2021/12/25 11:29:23;;;;;;;41.60;18.47;;;3.50;99.90;;;;;;5086169;28;20661;-60
2021/12/25 11:31:51;;;;;;;33.57;16.97;;;3.50;99.90;;;;;;5098575;28;20245;-61
2021/12/25 11:34:18;;;;;;;38.37;19.50;;;3.40;99.90;;;;;;5077200;28;20284;-60
2021/12/25 11:36:48;;;;;;;39.70;18.90;;;3.40;99.90;;;;;;5066747;28;20522;-60
2021/12/25 11:39:15;;;;;;;34.57;18.07;;;3.50;99.90;;;;;;5094003;28;20650;-62
2021/12/25 11:41:43;;;;;;;37.77;20.30;;;3.60;99.90;;;;;;5066447;28;20324;-60
2021/12/25 11:44:34;;;;;;;42.17;20.90;;;3.70;99.90;;;;;;5073970;28;20277;-60
2021/12/25 11:47:01;;;;;;;41.87;18.70;;;3.60;99.90;;;;;;5075770;28;20279;-60
2021/12/25 11:49:27;;;;;;;40.77;20.07;;;3.50;99.90;;;;;;5095111;28;20189;-62
2021/12/25 11:51:53;;;;;;;42.83;18.97;;;3.50;99.90;;;;;;5072407;28;20243;-62
2021/12/25 11:54:30;;;;;;;40.00;20.40;;;3.60;99.90;;;;;;5058338;28;20193;-64
2021/12/25 11:59:47;;;;;;;47.17;21.83;;;3.20;99.90;;;;;;5080207;28;20180;-61
2021/12/25 12:02:50;;;;;;;51.37;21.27;;;3.20;99.90;;;;;;5095398;28;20687;-60
2021/12/25 12:05:27;;;;;;;46.47;20.20;;;3.20;99.90;;;;;;5095124;28;20249;-61
2021/12/25 12:08:11;;;;;;;46.50;22.73;;;3.20;99.90;;;;;;5095255;28;20652;-61
2021/12/25 12:10:46;;;;;;;45.27;22.93;;;3.20;99.90;;;;;;5067511;28;20197;-60
2021/12/25 12:13:32;;;;;;;51.10;24.30;;;3.20;99.90;;;;;;5073414;28;20181;-62
2021/12/25 12:16:02;;;;;;;51.17;22.83;;;3.10;99.90;;;;;;5095255;28;20188;-61
2021/12/25 12:18:29;;;;;;;45.00;24.80;;;3.00;99.90;;;;;;5078090;28;20181;-60
2021/12/25 12:21:06;;;;;;;43.07;22.30;;;3.10;99.90;;;;;;5071805;28;20212;-61
2021/12/25 12:26:11;;;;;;;46.33;23.33;;;3.20;99.90;;;;;;5093109;28;20191;-60
2021/12/25 12:28:48;;;;;;;49.97;23.20;;;3.20;99.90;;;;;;5060428;28;20219;-60
2021/12/25 12:31:32;;;;;;;49.33;22.93;;;3.30;99.90;;;;;;5094789;28;20184;-60
2021/12/25 12:33:58;;;;;;;50.93;24.13;;;3.20;99.90;;;;;;5094253;28;20180;-62
2021/12/25 12:36:26;;;;;;;55.27;26.50;;;3.00;99.90;;;;;;5066458;28;20193;-61
2021/12/25 12:38:59;;;;;;;47.63;25.57;;;3.00;99.90;;;;;;5075546;28;20188;-62
2021/12/25 12:41:39;;;;;;;50.23;25.83;;;3.30;99.90;;;;;;5091825;28;20632;-61
2021/12/25 12:44:09;;;;;;;47.20;23.00;;;3.30;99.90;;;;;;5090707;28;20618;-60
2021/12/25 12:46:51;;;;;;;53.70;24.43;;;3.30;99.90;;;;;;5089945;28;20176;-60
2021/12/25 12:49:24;;;;;;;44.17;22.73;;;3.10;99.90;;;;;;5090796;28;20233;-60
2021/12/25 12:52:09;;;;;;;45.20;23.50;;;3.00;99.90;;;;;;5092001;28;20668;-64
2021/12/25 12:54:50;;;;;;;53.90;25.33;;;3.00;99.90;;;;;;5082277;28;20550;-60
2021/12/25 12:57:19;;;;;;;46.70;22.73;;;2.80;99.90;;;;;;5071349;28;20192;-60
2021/12/25 12:59:57;;;;;;;51.97;25.87;;;2.80;99.90;;;;;;5073313;28;20283;-60
2021/12/25 13:02:26;;;;;;;50.67;22.83;;;3.00;99.90;;;;;;5078359;28;20299;-63
2021/12/25 13:04:57;;;;;;;49.63;26.33;;;3.00;99.90;;;;;;5092157;28;20573;-60
2021/12/25 13:07:24;;;;;;;43.50;21.57;;;3.10;99.90;;;;;;5085120;28;20203;-61
2021/12/25 13:10:50;;;;;;;57.13;25.20;;;3.10;99.90;;;;;;5075726;28;20291;-60
2021/12/25 13:13:13;;;;;;;58.57;26.00;;;3.10;99.90;;;;;;5074624;28;20271;-60
2021/12/25 13:15:42;;;;;;;54.63;27.27;;;3.20;99.90;;;;;;5093671;28;20192;-60
2021/12/25 13:18:08;;;;;;;54.83;24.53;;;3.20;99.90;;;;;;5084241;28;20193;-59
2021/12/25 13:20:52;;;;;;;50.53;25.27;;;2.90;99.90;;;;;;5088393;28;20203;-59
2021/12/25 13:23:24;;;;;;;58.60;27.20;;;2.90;99.90;;;;;;5074890;28;20711;-60
2021/12/25 13:25:53;;;;;;;64.40;27.93;;;2.90;99.90;;;;;;5093840;28;20268;-60
2021/12/25 13:28:21;;;;;;;58.60;23.20;;;2.90;99.90;;;;;;5078049;28;20193;-59
2021/12/25 13:30:52;;;;;;;56.07;28.33;;;2.90;99.90;;;;;;5074393;28;20188;-60
2021/12/25 13:33:21;;;;;;;56.83;29.70;;;2.90;99.90;;;;;;5056364;28;20574;-60
2021/12/25 13:35:48;;;;;;;60.17;25.43;;;2.90;99.90;;;;;;5074139;28;20181;-59
2021/12/25 13:38:15;;;;;;;48.47;25.70;;;2.90;99.90;;;;;;5083661;28;20184;-60
2021/12/25 13:40:48;;;;;;;50.13;26.50;;;2.80;99.90;;;;;;5039047;28;20355;-60
2021/12/25 13:43:14;;;;;;;45.50;23.63;;;2.70;99.90;;;;;;5091535;28;20180;-60
2021/12/25 13:45:40;;;;;;;55.87;26.50;;;2.60;99.90;;;;;;5042126;28;20550;-59
2021/12/25 13:48:06;;;;;;;55.37;25.67;;;2.60;99.90;;;;;;5058475;28;20207;-60
2021/12/25 13:50:33;;;;;;;56.43;27.97;;;2.60;99.90;;;;;;5075576;28;20187;-59
2021/12/25 13:52:59;;;;;;;61.47;27.70;;;2.60;99.90;;;;;;5073971;28;20535;-60
2021/12/25 13:55:28;;;;;;;58.73;26.43;;;2.60;99.90;;;;;;5093052;28;20217;-60
2021/12/25 13:57:58;;;;;;;57.70;27.27;;;2.80;99.90;;;;;;5087032;28;20181;-61
2021/12/25 14:00:31;;;;;;;55.80;25.27;;;2.80;99.90;;;;;;5088090;28;20681;-61
2021/12/25 14:03:01;;;;;;;53.03;25.60;;;2.90;99.90;;;;;;5092537;28;20648;-59
2021/12/25 14:05:30;;;;;;;57.17;27.30;;;2.90;99.90;;;;;;5093047;28;20177;-59
2021/12/25 14:07:56;;;;;;;54.83;24.93;;;2.80;99.90;;;;;;5085197;28;20189;-60